sensor_id;sensor_type;location;lat;lon;timestamp;pressure;altitude;pressure_sealevel;temperature;humidity
62103;BME280;48077;48.104;11.702;2024-03-29T00:01:51;94264.00;;;1.69;100.00
62103;BME280;48077;48.104;11.702;2024-03-29T00:04:17;94272.47;;;1.71;100.00
62103;BME280;48077;48.104;11.702;2024-03-29T00:06:43;94267.22;;;1.71;100.00
62103;BME280;48077;48.104;11.702;2024-03-29T00:09:09;94272.03;;;1.74;100.00
62103;BME280;48077;48.104;11.702;2024-03-29T00:11:35;94264.75;;;1.76;100.00
62103;BME280;48077;48.104;11.702;2024-03-29T00:14:01;94258.72;;;1.76;100.00
62103;BME280;48077;48.104;11.702;2024-03-29T00:16:28;94264.72;;;1.90;100.00
62103;BME280;48077;48.104;11.702;2024-03-29T00:18:54;94243.38;;;1.66;100.00
62103;BME280;48077;48.104;11.702;2024-03-29T00:21:20;94261.53;;;1.74;100.00
62103;BME280;48077;48.104;11.702;2024-03-29T00:23:46;94253.00;;;1.79;100.00
62103;BME280;48077;48.104;11.702;2024-03-29T00:26:12;94255.66;;;1.79;100.00
62103;BME280;48077;48.104;11.702;2024-03-29T00:28:38;94242.56;;;1.66;100.00
62103;BME280;48077;48.104;11.702;2024-03-29T00:31:04;94232.69;;;1.61;100.00
62103;BME280;48077;48.104;11.702;2024-03-29T00:33:31;94226.53;;;1.80;100.00
62103;BME280;48077;48.104;11.702;2024-03-29T00:35:57;94218.63;;;1.80;100.00
62103;BME280;48077;48.104;11.702;2024-03-29T00:38:23;94218.91;;;1.66;100.00
62103;BME280;48077;48.104;11.702;2024-03-29T00:40:49;94211.47;;;1.56;100.00
62103;BME280;48077;48.104;11.702;2024-03-29T00:43:15;94211.69;;;1.48;100.00
62103;BME280;48077;48.104;11.702;2024-03-29T00:45:41;94207.66;;;1.45;100.00
62103;BME280;48077;48.104;11.702;2024-03-29T00:48:07;94211.50;;;1.42;100.00
62103;BME280;48077;48.104;11.702;2024-03-29T00:50:34;94212.72;;;1.47;100.00
62103;BME280;48077;48.104;11.702;2024-03-29T00:53:00;94200.56;;;1.46;100.00
62103;BME280;48077;48.104;11.702;2024-03-29T00:55:26;94204.63;;;1.48;100.00
62103;BME280;48077;48.104;11.702;2024-03-29T00:57:52;94205.47;;;1.42;100.00
62103;BME280;48077;48.104;11.702;2024-03-29T01:00:18;94201.19;;;1.41;100.00
62103;BME280;48077;48.104;11.702;2024-03-29T01:07:43;94201.25;;;1.28;100.00
62103;BME280;48077;48.104;11.702;2024-03-29T01:10:09;94201.06;;;1.29;100.00
62103;BME280;48077;48.104;11.702;2024-03-29T01:12:35;94195.97;;;1.34;100.00
62103;BME280;48077;48.104;11.702;2024-03-29T01:15:01;94185.72;;;1.19;100.00
62103;BME280;48077;48.104;11.702;2024-03-29T01:17:28;94182.88;;;1.28;100.00
62103;BME280;48077;48.104;11.702;2024-03-29T01:19:54;94170.31;;;1.36;100.00
62103;BME280;48077;48.104;11.702;2024-03-29T01:22:20;94166.84;;;1.42;100.00
62103;BME280;48077;48.104;11.702;2024-03-29T01:24:47;94163.22;;;1.37;100.00
62103;BME280;48077;48.104;11.702;2024-03-29T01:27:13;94149.50;;;1.28;100.00
62103;BME280;48077;48.104;11.702;2024-03-29T01:29:39;94147.91;;;1.27;100.00
62103;BME280;48077;48.104;11.702;2024-03-29T01:32:06;94142.66;;;1.27;100.00
62103;BME280;48077;48.104;11.702;2024-03-29T01:34:32;94132.13;;;1.34;100.00
62103;BME280;48077;48.104;11.702;2024-03-29T01:36:57;94117.19;;;1.28;100.00
62103;BME280;48077;48.104;11.702;2024-03-29T01:39:23;94114.97;;;1.25;100.00
62103;BME280;48077;48.104;11.702;2024-03-29T01:41:51;94096.00;;;1.23;100.00
62103;BME280;48077;48.104;11.702;2024-03-29T01:44:17;94087.22;;;1.35;100.00
62103;BME280;48077;48.104;11.702;2024-03-29T01:46:44;94088.88;;;1.36;100.00
62103;BME280;48077;48.104;11.702;2024-03-29T01:49:13;94090.28;;;1.32;100.00
62103;BME280;48077;48.104;11.702;2024-03-29T01:51:41;94086.63;;;1.33;100.00
62103;BME280;48077;48.104;11.702;2024-03-29T01:54:08;94084.88;;;1.27;100.00
62103;BME280;48077;48.104;11.702;2024-03-29T01:56:35;94101.44;;;1.28;100.00
62103;BME280;48077;48.104;11.702;2024-03-29T01:59:04;94102.22;;;1.28;100.00
62103;BME280;48077;48.104;11.702;2024-03-29T02:01:31;94104.81;;;1.35;100.00
62103;BME280;48077;48.104;11.702;2024-03-29T02:03:59;94104.03;;;1.34;100.00
62103;BME280;48077;48.104;11.702;2024-03-29T02:06:27;94103.22;;;1.34;100.00
62103;BME280;48077;48.104;11.702;2024-03-29T02:08:54;94107.44;;;1.35;100.00
62103;BME280;48077;48.104;11.702;2024-03-29T02:11:20;94110.28;;;1.33;100.00
62103;BME280;48077;48.104;11.702;2024-03-29T02:13:48;94100.41;;;1.29;100.00
62103;BME280;48077;48.104;11.702;2024-03-29T02:16:17;94097.22;;;1.20;100.00
62103;BME280;48077;48.104;11.702;2024-03-29T02:18:43;94100.03;;;1.25;100.00
62103;BME280;48077;48.104;11.702;2024-03-29T02:21:10;94105.50;;;1.24;100.00
62103;BME280;48077;48.104;11.702;2024-03-29T02:23:41;94109.13;;;1.23;100.00
62103;BME280;48077;48.104;11.702;2024-03-29T02:26:11;94101.84;;;1.31;100.00
62103;BME280;48077;48.104;11.702;2024-03-29T02:28:38;94098.81;;;1.28;100.00
62103;BME280;48077;48.104;11.702;2024-03-29T02:31:04;94094.56;;;1.27;100.00
62103;BME280;48077;48.104;11.702;2024-03-29T02:33:31;94092.09;;;1.38;100.00
62103;BME280;48077;48.104;11.702;2024-03-29T02:35:58;94088.69;;;1.31;100.00
62103;BME280;48077;48.104;11.702;2024-03-29T02:38:25;94096.56;;;1.31;100.00
62103;BME280;48077;48.104;11.702;2024-03-29T02:40:52;94093.72;;;1.33;100.00
62103;BME280;48077;48.104;11.702;2024-03-29T02:43:19;94092.88;;;1.39;100.00
62103;BME280;48077;48.104;11.702;2024-03-29T02:45:46;94083.38;;;1.45;100.00
62103;BME280;48077;48.104;11.702;2024-03-29T02:48:12;94084.34;;;1.50;100.00
62103;BME280;48077;48.104;11.702;2024-03-29T02:50:39;94086.00;;;1.45;100.00
62103;BME280;48077;48.104;11.702;2024-03-29T02:53:05;94084.56;;;1.49;100.00
62103;BME280;48077;48.104;11.702;2024-03-29T02:55:33;94080.88;;;1.56;100.00
62103;BME280;48077;48.104;11.702;2024-03-29T02:57:59;94077.97;;;1.65;100.00
62103;BME280;48077;48.104;11.702;2024-03-29T03:00:27;94077.38;;;1.69;100.00
62103;BME280;48077;48.104;11.702;2024-03-29T03:02:53;94076.13;;;1.72;100.00
62103;BME280;48077;48.104;11.702;2024-03-29T03:05:20;94074.22;;;1.86;100.00
62103;BME280;48077;48.104;11.702;2024-03-29T03:07:46;94070.75;;;1.92;100.00
62103;BME280;48077;48.104;11.702;2024-03-29T03:10:30;94069.25;;;2.02;100.00
62103;BME280;48077;48.104;11.702;2024-03-29T03:13:14;94067.34;;;2.10;100.00
62103;BME280;48077;48.104;11.702;2024-03-29T03:15:43;94063.31;;;2.07;100.00
62103;BME280;48077;48.104;11.702;2024-03-29T03:18:09;94055.44;;;2.07;100.00
62103;BME280;48077;48.104;11.702;2024-03-29T03:20:36;94061.69;;;2.13;100.00
62103;BME280;48077;48.104;11.702;2024-03-29T03:23:03;94056.28;;;2.26;100.00
62103;BME280;48077;48.104;11.702;2024-03-29T03:25:30;94040.50;;;2.26;100.00
62103;BME280;48077;48.104;11.702;2024-03-29T03:27:56;94046.72;;;2.32;100.00
62103;BME280;48077;48.104;11.702;2024-03-29T03:30:23;94049.44;;;2.43;100.00
62103;BME280;48077;48.104;11.702;2024-03-29T03:32:50;94051.16;;;2.56;100.00
62103;BME280;48077;48.104;11.702;2024-03-29T03:35:17;94046.47;;;2.58;100.00
62103;BME280;48077;48.104;11.702;2024-03-29T03:37:43;94046.03;;;2.61;100.00
62103;BME280;48077;48.104;11.702;2024-03-29T03:40:10;94041.72;;;2.67;100.00
62103;BME280;48077;48.104;11.702;2024-03-29T03:42:36;94038.50;;;2.65;100.00
62103;BME280;48077;48.104;11.702;2024-03-29T03:45:03;94033.38;;;2.70;100.00
62103;BME280;48077;48.104;11.702;2024-03-29T03:47:29;94012.69;;;2.55;100.00
62103;BME280;48077;48.104;11.702;2024-03-29T03:49:57;94032.66;;;2.63;100.00
62103;BME280;48077;48.104;11.702;2024-03-29T03:52:23;94008.47;;;2.54;100.00
62103;BME280;48077;48.104;11.702;2024-03-29T03:54:50;94027.75;;;2.67;100.00
62103;BME280;48077;48.104;11.702;2024-03-29T03:57:16;94039.69;;;2.69;100.00
62103;BME280;48077;48.104;11.702;2024-03-29T03:59:43;94033.59;;;2.69;100.00
62103;BME280;48077;48.104;11.702;2024-03-29T04:02:09;94030.03;;;2.63;100.00
62103;BME280;48077;48.104;11.702;2024-03-29T04:04:35;94007.22;;;2.57;100.00
62103;BME280;48077;48.104;11.702;2024-03-29T04:07:03;94008.38;;;2.61;100.00
62103;BME280;48077;48.104;11.702;2024-03-29T04:09:30;94021.38;;;2.74;100.00
62103;BME280;48077;48.104;11.702;2024-03-29T04:11:56;93997.09;;;2.54;100.00
62103;BME280;48077;48.104;11.702;2024-03-29T04:14:22;94022.34;;;2.80;100.00
62103;BME280;48077;48.104;11.702;2024-03-29T04:16:48;94044.00;;;2.82;100.00
62103;BME280;48077;48.104;11.702;2024-03-29T04:19:15;94045.59;;;2.83;100.00
62103;BME280;48077;48.104;11.702;2024-03-29T04:21:41;94045.38;;;2.84;100.00
62103;BME280;48077;48.104;11.702;2024-03-29T04:24:09;94038.72;;;2.82;100.00
62103;BME280;48077;48.104;11.702;2024-03-29T04:26:35;94026.66;;;2.74;100.00
62103;BME280;48077;48.104;11.702;2024-03-29T04:29:04;94022.63;;;2.72;100.00
62103;BME280;48077;48.104;11.702;2024-03-29T04:31:29;94028.28;;;2.75;100.00
62103;BME280;48077;48.104;11.702;2024-03-29T04:33:56;94005.97;;;2.78;100.00
62103;BME280;48077;48.104;11.702;2024-03-29T04:36:22;93990.66;;;2.68;100.00
62103;BME280;48077;48.104;11.702;2024-03-29T04:38:49;93999.31;;;2.75;100.00
62103;BME280;48077;48.104;11.702;2024-03-29T04:41:17;93979.84;;;2.76;100.00
62103;BME280;48077;48.104;11.702;2024-03-29T04:43:44;93979.47;;;2.73;100.00
62103;BME280;48077;48.104;11.702;2024-03-29T04:46:12;93969.47;;;2.81;100.00
62103;BME280;48077;48.104;11.702;2024-03-29T04:48:40;93959.66;;;2.70;100.00
62103;BME280;48077;48.104;11.702;2024-03-29T04:51:08;93981.22;;;2.79;100.00
62103;BME280;48077;48.104;11.702;2024-03-29T04:53:35;93972.25;;;2.68;100.00
62103;BME280;48077;48.104;11.702;2024-03-29T04:56:02;93993.47;;;2.73;100.00
62103;BME280;48077;48.104;11.702;2024-03-29T04:58:31;93992.28;;;2.69;100.00
62103;BME280;48077;48.104;11.702;2024-03-29T05:00:58;93996.31;;;2.72;100.00
62103;BME280;48077;48.104;11.702;2024-03-29T05:03:25;93984.09;;;2.59;100.00
62103;BME280;48077;48.104;11.702;2024-03-29T05:05:52;93997.56;;;2.69;100.00
62103;BME280;48077;48.104;11.702;2024-03-29T05:08:19;94011.16;;;2.66;100.00
62103;BME280;48077;48.104;11.702;2024-03-29T05:10:47;94004.28;;;2.65;100.00
62103;BME280;48077;48.104;11.702;2024-03-29T05:13:15;94011.53;;;2.70;100.00
62103;BME280;48077;48.104;11.702;2024-03-29T05:15:43;94005.16;;;2.59;100.00
62103;BME280;48077;48.104;11.702;2024-03-29T05:18:10;94015.81;;;2.64;100.00
62103;BME280;48077;48.104;11.702;2024-03-29T05:20:37;94014.16;;;2.70;100.00
62103;BME280;48077;48.104;11.702;2024-03-29T05:23:05;94020.59;;;2.74;100.00
62103;BME280;48077;48.104;11.702;2024-03-29T05:25:32;94023.06;;;2.69;100.00
62103;BME280;48077;48.104;11.702;2024-03-29T05:27:59;94002.38;;;2.54;100.00
62103;BME280;48077;48.104;11.702;2024-03-29T05:30:26;94018.91;;;2.61;100.00
62103;BME280;48077;48.104;11.702;2024-03-29T05:32:55;94018.63;;;2.69;100.00
62103;BME280;48077;48.104;11.702;2024-03-29T05:35:22;93999.44;;;2.62;100.00
62103;BME280;48077;48.104;11.702;2024-03-29T05:37:49;93989.50;;;2.64;100.00
62103;BME280;48077;48.104;11.702;2024-03-29T05:40:19;93990.66;;;2.68;100.00
62103;BME280;48077;48.104;11.702;2024-03-29T05:42:50;93978.09;;;2.70;100.00
62103;BME280;48077;48.104;11.702;2024-03-29T05:45:24;93971.00;;;2.71;100.00
62103;BME280;48077;48.104;11.702;2024-03-29T05:47:53;93961.88;;;2.73;100.00
62103;BME280;48077;48.104;11.702;2024-03-29T05:50:22;93931.00;;;2.62;100.00
62103;BME280;48077;48.104;11.702;2024-03-29T05:52:50;93940.94;;;2.78;100.00
62103;BME280;48077;48.104;11.702;2024-03-29T05:55:17;93948.69;;;2.92;100.00
62103;BME280;48077;48.104;11.702;2024-03-29T05:57:44;93948.00;;;2.96;100.00
62103;BME280;48077;48.104;11.702;2024-03-29T06:00:12;93945.69;;;3.00;100.00
62103;BME280;48077;48.104;11.702;2024-03-29T06:02:41;93948.50;;;3.05;100.00
62103;BME280;48077;48.104;11.702;2024-03-29T06:05:10;93954.47;;;3.12;100.00
62103;BME280;48077;48.104;11.702;2024-03-29T06:07:38;93954.59;;;3.17;100.00
62103;BME280;48077;48.104;11.702;2024-03-29T06:10:06;93942.06;;;3.01;100.00
62103;BME280;48077;48.104;11.702;2024-03-29T06:12:34;93974.06;;;3.16;100.00
62103;BME280;48077;48.104;11.702;2024-03-29T06:15:01;93967.78;;;3.17;100.00
62103;BME280;48077;48.104;11.702;2024-03-29T06:17:46;93963.66;;;3.21;100.00
62103;BME280;48077;48.104;11.702;2024-03-29T06:20:13;93955.97;;;3.20;100.00
62103;BME280;48077;48.104;11.702;2024-03-29T06:22:41;93991.78;;;3.39;100.00
62103;BME280;48077;48.104;11.702;2024-03-29T06:25:08;93986.75;;;3.50;100.00
62103;BME280;48077;48.104;11.702;2024-03-29T06:27:35;94010.06;;;3.64;100.00
62103;BME280;48077;48.104;11.702;2024-03-29T06:30:03;94004.63;;;3.78;100.00
62103;BME280;48077;48.104;11.702;2024-03-29T06:32:30;94003.94;;;3.94;100.00
62103;BME280;48077;48.104;11.702;2024-03-29T06:34:57;94009.34;;;4.11;100.00
62103;BME280;48077;48.104;11.702;2024-03-29T06:37:24;94013.59;;;4.24;100.00
62103;BME280;48077;48.104;11.702;2024-03-29T06:39:53;94020.25;;;4.38;100.00
62103;BME280;48077;48.104;11.702;2024-03-29T06:42:20;94003.38;;;4.39;100.00
62103;BME280;48077;48.104;11.702;2024-03-29T06:44:47;93994.53;;;4.57;100.00
62103;BME280;48077;48.104;11.702;2024-03-29T06:47:14;93999.81;;;4.57;100.00
62103;BME280;48077;48.104;11.702;2024-03-29T06:49:41;93983.75;;;4.47;100.00
62103;BME280;48077;48.104;11.702;2024-03-29T06:52:08;93987.41;;;4.70;100.00
62103;BME280;48077;48.104;11.702;2024-03-29T06:54:36;93984.53;;;4.71;100.00
62103;BME280;48077;48.104;11.702;2024-03-29T06:57:04;93993.41;;;4.94;100.00
62103;BME280;48077;48.104;11.702;2024-03-29T06:59:31;93968.13;;;4.98;100.00
62103;BME280;48077;48.104;11.702;2024-03-29T07:01:58;93977.88;;;5.09;100.00
62103;BME280;48077;48.104;11.702;2024-03-29T07:04:25;93976.72;;;5.17;100.00
62103;BME280;48077;48.104;11.702;2024-03-29T07:06:53;93986.50;;;5.33;100.00
62103;BME280;48077;48.104;11.702;2024-03-29T07:09:21;93984.31;;;5.42;100.00
62103;BME280;48077;48.104;11.702;2024-03-29T07:11:50;93982.06;;;5.51;100.00
62103;BME280;48077;48.104;11.702;2024-03-29T07:14:18;93984.34;;;5.59;100.00
62103;BME280;48077;48.104;11.702;2024-03-29T07:16:46;93970.06;;;5.60;100.00
62103;BME280;48077;48.104;11.702;2024-03-29T07:19:13;93953.47;;;5.64;100.00
62103;BME280;48077;48.104;11.702;2024-03-29T07:21:42;93960.03;;;5.79;100.00
62103;BME280;48077;48.104;11.702;2024-03-29T07:24:09;93964.66;;;6.00;100.00
62103;BME280;48077;48.104;11.702;2024-03-29T07:26:36;93972.03;;;6.15;100.00
62103;BME280;48077;48.104;11.702;2024-03-29T07:29:03;93960.31;;;6.28;100.00
62103;BME280;48077;48.104;11.702;2024-03-29T07:31:32;93962.03;;;6.39;100.00
62103;BME280;48077;48.104;11.702;2024-03-29T07:33:59;93970.44;;;6.53;100.00
62103;BME280;48077;48.104;11.702;2024-03-29T07:36:26;93972.72;;;6.66;100.00
62103;BME280;48077;48.104;11.702;2024-03-29T07:38:57;93980.53;;;6.73;100.00
62103;BME280;48077;48.104;11.702;2024-03-29T07:41:24;93980.88;;;6.82;100.00
62103;BME280;48077;48.104;11.702;2024-03-29T07:43:52;93975.28;;;7.00;100.00
62103;BME280;48077;48.104;11.702;2024-03-29T07:46:19;93985.81;;;7.17;100.00
62103;BME280;48077;48.104;11.702;2024-03-29T07:48:48;93988.59;;;7.27;100.00
62103;BME280;48077;48.104;11.702;2024-03-29T07:51:15;94003.41;;;7.50;100.00
62103;BME280;48077;48.104;11.702;2024-03-29T07:53:42;94006.97;;;7.61;100.00
62103;BME280;48077;48.104;11.702;2024-03-29T07:56:09;94010.38;;;7.84;100.00
62103;BME280;48077;48.104;11.702;2024-03-29T07:58:36;94015.59;;;8.06;100.00
62103;BME280;48077;48.104;11.702;2024-03-29T08:01:03;94009.25;;;8.07;100.00
62103;BME280;48077;48.104;11.702;2024-03-29T08:03:29;94012.31;;;8.26;100.00
62103;BME280;48077;48.104;11.702;2024-03-29T08:06:00;94015.53;;;8.28;100.00
62103;BME280;48077;48.104;11.702;2024-03-29T08:08:29;94008.78;;;8.47;100.00
62103;BME280;48077;48.104;11.702;2024-03-29T08:10:56;94012.28;;;8.58;100.00
62103;BME280;48077;48.104;11.702;2024-03-29T08:13:24;94008.75;;;8.85;100.00
62103;BME280;48077;48.104;11.702;2024-03-29T08:15:56;94010.47;;;9.11;100.00
62103;BME280;48077;48.104;11.702;2024-03-29T08:18:24;94006.03;;;9.27;100.00
62103;BME280;48077;48.104;11.702;2024-03-29T08:20:50;94004.00;;;9.65;100.00
62103;BME280;48077;48.104;11.702;2024-03-29T08:23:18;93986.94;;;9.66;91.48
62103;BME280;48077;48.104;11.702;2024-03-29T08:25:45;93985.69;;;10.05;87.50
62103;BME280;48077;48.104;11.702;2024-03-29T08:28:13;93991.28;;;10.03;96.37
62103;BME280;48077;48.104;11.702;2024-03-29T08:30:40;93988.88;;;10.12;92.24
62103;BME280;48077;48.104;11.702;2024-03-29T08:33:07;93980.91;;;10.32;94.97
62103;BME280;48077;48.104;11.702;2024-03-29T08:35:34;93973.16;;;10.41;98.79
62103;BME280;48077;48.104;11.702;2024-03-29T08:38:01;93976.63;;;10.47;100.00
62103;BME280;48077;48.104;11.702;2024-03-29T08:40:30;93969.94;;;10.65;90.19
62103;BME280;48077;48.104;11.702;2024-03-29T08:42:59;93976.06;;;10.65;92.08
62103;BME280;48077;48.104;11.702;2024-03-29T08:45:26;93981.88;;;10.83;91.08
62103;BME280;48077;48.104;11.702;2024-03-29T08:47:55;93967.75;;;10.92;86.80
62103;BME280;48077;48.104;11.702;2024-03-29T08:50:22;93971.97;;;11.04;92.37
62103;BME280;48077;48.104;11.702;2024-03-29T08:52:49;93980.19;;;11.18;84.86
62103;BME280;48077;48.104;11.702;2024-03-29T08:55:18;93972.97;;;11.23;89.80
62103;BME280;48077;48.104;11.702;2024-03-29T08:57:46;93979.03;;;11.39;92.34
62103;BME280;48077;48.104;11.702;2024-03-29T09:00:14;93982.94;;;11.57;90.89
62103;BME280;48077;48.104;11.702;2024-03-29T09:02:41;93974.56;;;11.79;80.02
62103;BME280;48077;48.104;11.702;2024-03-29T09:05:08;93976.81;;;12.01;84.63
62103;BME280;48077;48.104;11.702;2024-03-29T09:07:34;93971.31;;;12.22;90.58
62103;BME280;48077;48.104;11.702;2024-03-29T09:10:02;93976.50;;;12.42;92.14
62103;BME280;48077;48.104;11.702;2024-03-29T09:12:29;93973.75;;;12.52;93.30
62103;BME280;48077;48.104;11.702;2024-03-29T09:14:58;93975.50;;;12.62;89.38
62103;BME280;48077;48.104;11.702;2024-03-29T09:17:24;93974.91;;;12.70;88.25
62103;BME280;48077;48.104;11.702;2024-03-29T09:19:52;93969.53;;;12.70;82.63
62103;BME280;48077;48.104;11.702;2024-03-29T09:22:19;93967.00;;;12.84;89.55
62103;BME280;48077;48.104;11.702;2024-03-29T09:24:45;93974.69;;;12.91;84.15
62103;BME280;48077;48.104;11.702;2024-03-29T09:27:11;93966.91;;;12.94;86.76
62103;BME280;48077;48.104;11.702;2024-03-29T09:29:38;93960.22;;;13.16;90.58
62103;BME280;48077;48.104;11.702;2024-03-29T09:32:06;93962.63;;;13.42;84.24
62103;BME280;48077;48.104;11.702;2024-03-29T09:34:33;93966.41;;;13.60;85.30
62103;BME280;48077;48.104;11.702;2024-03-29T09:37:00;93961.69;;;13.89;80.11
62103;BME280;48077;48.104;11.702;2024-03-29T09:39:27;93962.84;;;14.21;77.58
62103;BME280;48077;48.104;11.702;2024-03-29T09:41:57;93959.00;;;14.60;77.94
62103;BME280;48077;48.104;11.702;2024-03-29T09:44:27;93956.19;;;15.12;69.92
62103;BME280;48077;48.104;11.702;2024-03-29T09:46:59;93952.97;;;15.51;59.79
62103;BME280;48077;48.104;11.702;2024-03-29T09:49:30;93953.63;;;15.85;63.25
62103;BME280;48077;48.104;11.702;2024-03-29T09:51:58;93955.66;;;16.02;59.93
62103;BME280;48077;48.104;11.702;2024-03-29T09:54:26;93949.63;;;16.18;60.20
62103;BME280;48077;48.104;11.702;2024-03-29T09:56:54;93957.53;;;16.37;61.08
62103;BME280;48077;48.104;11.702;2024-03-29T09:59:21;93962.09;;;16.37;57.59
62103;BME280;48077;48.104;11.702;2024-03-29T10:01:50;93952.16;;;16.15;57.90
62103;BME280;48077;48.104;11.702;2024-03-29T10:04:17;93958.53;;;16.05;61.65
62103;BME280;48077;48.104;11.702;2024-03-29T10:06:48;93951.50;;;15.95;60.01
62103;BME280;48077;48.104;11.702;2024-03-29T10:09:17;93951.22;;;15.83;61.28
62103;BME280;48077;48.104;11.702;2024-03-29T10:11:45;93950.28;;;15.65;59.39
62103;BME280;48077;48.104;11.702;2024-03-29T10:14:11;93945.19;;;15.64;61.06
62103;BME280;48077;48.104;11.702;2024-03-29T10:16:39;93947.41;;;15.48;60.86
62103;BME280;48077;48.104;11.702;2024-03-29T10:19:07;93952.59;;;15.44;60.78
62103;BME280;48077;48.104;11.702;2024-03-29T10:21:34;93949.69;;;15.54;64.93
62103;BME280;48077;48.104;11.702;2024-03-29T10:24:12;93949.28;;;15.75;70.51
62103;BME280;48077;48.104;11.702;2024-03-29T10:26:39;93944.00;;;15.84;60.40
62103;BME280;48077;48.104;11.702;2024-03-29T10:29:06;93933.59;;;15.91;58.31
62103;BME280;48077;48.104;11.702;2024-03-29T10:31:34;93931.78;;;16.00;60.94
62103;BME280;48077;48.104;11.702;2024-03-29T10:34:02;93927.44;;;16.13;64.56
62103;BME280;48077;48.104;11.702;2024-03-29T10:36:30;93930.38;;;16.25;60.25
62103;BME280;48077;48.104;11.702;2024-03-29T10:39:02;93927.66;;;16.48;59.52
62103;BME280;48077;48.104;11.702;2024-03-29T10:41:30;93935.81;;;16.56;58.97
62103;BME280;48077;48.104;11.702;2024-03-29T10:44:02;93931.22;;;16.57;56.32
62103;BME280;48077;48.104;11.702;2024-03-29T10:46:31;93934.47;;;16.76;50.91
62103;BME280;48077;48.104;11.702;2024-03-29T10:48:58;93919.41;;;16.98;50.36
62103;BME280;48077;48.104;11.702;2024-03-29T10:51:26;93920.91;;;17.22;50.80
62103;BME280;48077;48.104;11.702;2024-03-29T10:53:54;93909.44;;;17.65;45.89
62103;BME280;48077;48.104;11.702;2024-03-29T10:56:22;93910.53;;;17.72;46.49
62103;BME280;48077;48.104;11.702;2024-03-29T10:58:55;93906.75;;;17.65;45.80
62103;BME280;48077;48.104;11.702;2024-03-29T11:01:23;93900.53;;;17.73;45.60
62103;BME280;48077;48.104;11.702;2024-03-29T11:03:54;93906.28;;;17.80;43.77
62103;BME280;48077;48.104;11.702;2024-03-29T11:06:26;93919.28;;;17.78;46.18
62103;BME280;48077;48.104;11.702;2024-03-29T11:08:56;93902.13;;;17.74;47.14
62103;BME280;48077;48.104;11.702;2024-03-29T11:11:24;93897.41;;;17.71;43.54
62103;BME280;48077;48.104;11.702;2024-03-29T11:14:02;93892.94;;;17.75;45.26
62103;BME280;48077;48.104;11.702;2024-03-29T11:16:29;93888.81;;;17.69;44.92
62103;BME280;48077;48.104;11.702;2024-03-29T11:18:56;93896.09;;;17.68;42.24
62103;BME280;48077;48.104;11.702;2024-03-29T11:21:24;93897.06;;;17.81;41.81
62103;BME280;48077;48.104;11.702;2024-03-29T11:23:54;93893.09;;;17.78;41.54
62103;BME280;48077;48.104;11.702;2024-03-29T11:26:23;93895.97;;;17.91;41.24
62103;BME280;48077;48.104;11.702;2024-03-29T11:28:53;93894.38;;;18.16;42.85
62103;BME280;48077;48.104;11.702;2024-03-29T11:31:24;93894.06;;;18.17;43.53
62103;BME280;48077;48.104;11.702;2024-03-29T11:33:51;93883.13;;;18.14;41.05
62103;BME280;48077;48.104;11.702;2024-03-29T11:36:20;93887.41;;;18.15;40.70
62103;BME280;48077;48.104;11.702;2024-03-29T11:38:51;93892.59;;;18.46;44.27
62103;BME280;48077;48.104;11.702;2024-03-29T11:41:20;93891.56;;;18.68;41.68
62103;BME280;48077;48.104;11.702;2024-03-29T11:43:49;93889.06;;;18.63;39.61
62103;BME280;48077;48.104;11.702;2024-03-29T11:46:16;93883.59;;;18.89;38.85
62103;BME280;48077;48.104;11.702;2024-03-29T11:48:45;93891.63;;;19.07;39.25
62103;BME280;48077;48.104;11.702;2024-03-29T11:51:16;93890.47;;;19.46;40.60
62103;BME280;48077;48.104;11.702;2024-03-29T11:53:46;93882.19;;;19.21;38.03
62103;BME280;48077;48.104;11.702;2024-03-29T11:56:13;93881.03;;;19.31;38.23
62103;BME280;48077;48.104;11.702;2024-03-29T11:58:40;93876.00;;;19.21;38.46
62103;BME280;48077;48.104;11.702;2024-03-29T12:01:07;93883.75;;;19.52;38.99
62103;BME280;48077;48.104;11.702;2024-03-29T12:03:38;93874.84;;;19.81;37.78
62103;BME280;48077;48.104;11.702;2024-03-29T12:06:07;93881.56;;;19.75;38.09
62103;BME280;48077;48.104;11.702;2024-03-29T12:08:35;93862.84;;;20.04;38.75
62103;BME280;48077;48.104;11.702;2024-03-29T12:11:03;93867.13;;;20.26;35.90
62103;BME280;48077;48.104;11.702;2024-03-29T12:13:30;93866.72;;;20.36;35.94
62103;BME280;48077;48.104;11.702;2024-03-29T12:15:57;93867.75;;;21.01;37.85
62103;BME280;48077;48.104;11.702;2024-03-29T12:18:25;93864.94;;;20.86;36.50
62103;BME280;48077;48.104;11.702;2024-03-29T12:20:55;93865.25;;;20.72;36.59
62103;BME280;48077;48.104;11.702;2024-03-29T12:23:23;93854.38;;;20.59;36.62
62103;BME280;48077;48.104;11.702;2024-03-29T12:25:53;93843.44;;;20.68;34.83
62103;BME280;48077;48.104;11.702;2024-03-29T12:28:21;93845.84;;;21.31;36.16
62103;BME280;48077;48.104;11.702;2024-03-29T12:30:48;93853.09;;;21.02;35.73
62103;BME280;48077;48.104;11.702;2024-03-29T12:33:16;93838.97;;;21.21;33.93
62103;BME280;48077;48.104;11.702;2024-03-29T12:35:45;93842.00;;;21.20;33.47
62103;BME280;48077;48.104;11.702;2024-03-29T12:38:15;93833.00;;;21.81;33.55
62103;BME280;48077;48.104;11.702;2024-03-29T12:40:46;93830.53;;;21.76;32.43
62103;BME280;48077;48.104;11.702;2024-03-29T12:43:14;93830.06;;;22.42;33.98
62103;BME280;48077;48.104;11.702;2024-03-29T12:45:43;93825.63;;;21.94;32.04
62103;BME280;48077;48.104;11.702;2024-03-29T12:48:10;93816.41;;;22.87;33.21
62103;BME280;48077;48.104;11.702;2024-03-29T12:50:40;93825.69;;;23.33;31.88
62103;BME280;48077;48.104;11.702;2024-03-29T12:53:08;93828.97;;;23.23;30.51
62103;BME280;48077;48.104;11.702;2024-03-29T12:55:35;93816.34;;;23.15;30.76
62103;BME280;48077;48.104;11.702;2024-03-29T12:58:06;93818.50;;;23.76;32.60